sensor_id;sensor_type;location;lat;lon;timestamp;temperature;humidity
52127;DHT22;38120;53.176;6.614;2022-10-17T00:01:05;11.90;99.90
52127;DHT22;38120;53.176;6.614;2022-10-17T00:03:31;11.80;99.90
52127;DHT22;38120;53.176;6.614;2022-10-17T00:05:57;11.90;99.90
52127;DHT22;38120;53.176;6.614;2022-10-17T00:08:22;11.90;99.90
52127;DHT22;38120;53.176;6.614;2022-10-17T00:11:05;11.80;99.90
52127;DHT22;38120;53.176;6.614;2022-10-17T00:13:32;11.90;99.90
52127;DHT22;38120;53.176;6.614;2022-10-17T00:15:57;11.90;99.90
52127;DHT22;38120;53.176;6.614;2022-10-17T00:18:23;11.90;99.90
52127;DHT22;38120;53.176;6.614;2022-10-17T00:20:49;12.00;99.90
52127;DHT22;38120;53.176;6.614;2022-10-17T00:23:15;12.30;99.90
52127;DHT22;38120;53.176;6.614;2022-10-17T00:25:41;12.00;99.90
52127;DHT22;38120;53.176;6.614;2022-10-17T00:28:11;12.00;99.90
52127;DHT22;38120;53.176;6.614;2022-10-17T00:30:37;12.00;99.90
52127;DHT22;38120;53.176;6.614;2022-10-17T00:33:03;12.00;99.90
52127;DHT22;38120;53.176;6.614;2022-10-17T00:35:29;12.00;99.90
52127;DHT22;38120;53.176;6.614;2022-10-17T00:37:55;12.00;99.90
52127;DHT22;38120;53.176;6.614;2022-10-17T00:40:20;12.00;99.90
52127;DHT22;38120;53.176;6.614;2022-10-17T00:42:46;12.10;99.90
52127;DHT22;38120;53.176;6.614;2022-10-17T00:45:24;12.00;99.90
52127;DHT22;38120;53.176;6.614;2022-10-17T00:48:04;12.10;99.90
52127;DHT22;38120;53.176;6.614;2022-10-17T00:50:33;12.10;99.90
52127;DHT22;38120;53.176;6.614;2022-10-17T00:53:01;12.30;99.90
52127;DHT22;38120;53.176;6.614;2022-10-17T00:55:32;12.10;99.90
52127;DHT22;38120;53.176;6.614;2022-10-17T00:58:01;12.20;99.90
52127;DHT22;38120;53.176;6.614;2022-10-17T01:00:27;12.20;99.90
52127;DHT22;38120;53.176;6.614;2022-10-17T01:02:53;12.30;99.90
52127;DHT22;38120;53.176;6.614;2022-10-17T01:05:19;12.30;99.90
52127;DHT22;38120;53.176;6.614;2022-10-17T01:07:46;12.30;99.90
52127;DHT22;38120;53.176;6.614;2022-10-17T01:10:14;12.30;99.90
52127;DHT22;38120;53.176;6.614;2022-10-17T01:12:47;12.50;99.90
52127;DHT22;38120;53.176;6.614;2022-10-17T01:32:36;12.60;99.90
52127;DHT22;38120;53.176;6.614;2022-10-17T01:35:11;12.60;99.90
52127;DHT22;38120;53.176;6.614;2022-10-17T01:37:55;12.60;99.90
52127;DHT22;38120;53.176;6.614;2022-10-17T01:43:21;12.70;99.90
52127;DHT22;38120;53.176;6.614;2022-10-17T01:45:57;12.70;99.90
52127;DHT22;38120;53.176;6.614;2022-10-17T01:48:30;12.70;99.90
52127;DHT22;38120;53.176;6.614;2022-10-17T01:51:02;12.80;99.90
52127;DHT22;38120;53.176;6.614;2022-10-17T01:53:40;12.80;99.90
52127;DHT22;38120;53.176;6.614;2022-10-17T01:56:08;12.70;99.90
52127;DHT22;38120;53.176;6.614;2022-10-17T01:58:56;12.80;99.90
52127;DHT22;38120;53.176;6.614;2022-10-17T02:01:27;12.80;99.90
52127;DHT22;38120;53.176;6.614;2022-10-17T02:03:55;12.80;99.90
52127;DHT22;38120;53.176;6.614;2022-10-17T02:06:22;12.80;99.90
52127;DHT22;38120;53.176;6.614;2022-10-17T02:08:49;12.80;99.90
52127;DHT22;38120;53.176;6.614;2022-10-17T02:11:23;12.80;99.90
52127;DHT22;38120;53.176;6.614;2022-10-17T02:30:00;12.80;99.90
52127;DHT22;38120;53.176;6.614;2022-10-17T02:32:34;12.80;99.90
52127;DHT22;38120;53.176;6.614;2022-10-17T02:35:02;12.70;99.90
52127;DHT22;38120;53.176;6.614;2022-10-17T02:37:30;12.70;99.90
52127;DHT22;38120;53.176;6.614;2022-10-17T02:39:58;12.70;99.90
52127;DHT22;38120;53.176;6.614;2022-10-17T02:42:25;12.70;99.90
52127;DHT22;38120;53.176;6.614;2022-10-17T02:44:53;12.70;99.90
52127;DHT22;38120;53.176;6.614;2022-10-17T02:49:56;12.70;99.90
52127;DHT22;38120;53.176;6.614;2022-10-17T02:55:02;12.70;99.90
52127;DHT22;38120;53.176;6.614;2022-10-17T02:57:36;12.70;99.90
52127;DHT22;38120;53.176;6.614;2022-10-17T03:00:05;12.60;99.90
52127;DHT22;38120;53.176;6.614;2022-10-17T03:02:43;12.70;99.90
52127;DHT22;38120;53.176;6.614;2022-10-17T03:05:10;12.60;99.90
52127;DHT22;38120;53.176;6.614;2022-10-17T03:07:37;12.70;99.90
52127;DHT22;38120;53.176;6.614;2022-10-17T03:10:03;12.70;99.90
52127;DHT22;38120;53.176;6.614;2022-10-17T03:12:29;12.70;99.90
52127;DHT22;38120;53.176;6.614;2022-10-17T03:14:55;12.70;99.90
52127;DHT22;38120;53.176;6.614;2022-10-17T03:17:20;12.60;99.90
52127;DHT22;38120;53.176;6.614;2022-10-17T03:19:46;12.70;99.90
52127;DHT22;38120;53.176;6.614;2022-10-17T03:22:12;12.70;99.90
52127;DHT22;38120;53.176;6.614;2022-10-17T03:24:37;12.60;99.90
52127;DHT22;38120;53.176;6.614;2022-10-17T03:27:03;12.60;99.90
52127;DHT22;38120;53.176;6.614;2022-10-17T03:29:29;12.60;99.90
52127;DHT22;38120;53.176;6.614;2022-10-17T03:31:55;12.60;99.90
52127;DHT22;38120;53.176;6.614;2022-10-17T03:34:20;12.60;99.90
52127;DHT22;38120;53.176;6.614;2022-10-17T03:36:46;12.60;99.90
52127;DHT22;38120;53.176;6.614;2022-10-17T03:39:12;12.50;99.90
52127;DHT22;38120;53.176;6.614;2022-10-17T03:41:37;12.60;99.90
52127;DHT22;38120;53.176;6.614;2022-10-17T03:44:03;12.60;99.90
52127;DHT22;38120;53.176;6.614;2022-10-17T03:46:29;12.50;99.90
52127;DHT22;38120;53.176;6.614;2022-10-17T03:48:54;12.50;99.90
52127;DHT22;38120;53.176;6.614;2022-10-17T03:51:20;12.50;99.90
52127;DHT22;38120;53.176;6.614;2022-10-17T03:53:46;12.50;99.90
52127;DHT22;38120;53.176;6.614;2022-10-17T03:56:17;12.50;99.90
52127;DHT22;38120;53.176;6.614;2022-10-17T03:58:43;12.50;99.90
52127;DHT22;38120;53.176;6.614;2022-10-17T04:01:11;12.50;99.90
52127;DHT22;38120;53.176;6.614;2022-10-17T04:03:39;12.50;99.90
52127;DHT22;38120;53.176;6.614;2022-10-17T04:06:05;12.60;99.90
52127;DHT22;38120;53.176;6.614;2022-10-17T04:08:32;12.60;99.90
52127;DHT22;38120;53.176;6.614;2022-10-17T04:10:59;12.60;99.90
52127;DHT22;38120;53.176;6.614;2022-10-17T04:13:24;12.70;99.90
52127;DHT22;38120;53.176;6.614;2022-10-17T04:16:14;12.70;99.90
52127;DHT22;38120;53.176;6.614;2022-10-17T04:18:41;12.80;99.90
52127;DHT22;38120;53.176;6.614;2022-10-17T04:21:07;12.80;99.90
52127;DHT22;38120;53.176;6.614;2022-10-17T04:23:33;12.70;99.90
52127;DHT22;38120;53.176;6.614;2022-10-17T04:26:00;12.90;99.90
52127;DHT22;38120;53.176;6.614;2022-10-17T04:28:26;12.90;99.90
52127;DHT22;38120;53.176;6.614;2022-10-17T04:31:04;12.90;99.90
52127;DHT22;38120;53.176;6.614;2022-10-17T04:33:31;12.90;99.90
52127;DHT22;38120;53.176;6.614;2022-10-17T04:36:11;12.80;99.90
52127;DHT22;38120;53.176;6.614;2022-10-17T04:38:37;12.80;99.90
52127;DHT22;38120;53.176;6.614;2022-10-17T04:41:05;12.90;99.90
52127;DHT22;38120;53.176;6.614;2022-10-17T04:43:32;12.90;99.90
52127;DHT22;38120;53.176;6.614;2022-10-17T04:45:59;12.90;99.90
52127;DHT22;38120;53.176;6.614;2022-10-17T04:48:27;13.00;99.90
52127;DHT22;38120;53.176;6.614;2022-10-17T04:50:54;12.90;99.90
52127;DHT22;38120;53.176;6.614;2022-10-17T04:53:21;13.00;99.90
52127;DHT22;38120;53.176;6.614;2022-10-17T04:55:47;13.00;99.90
52127;DHT22;38120;53.176;6.614;2022-10-17T04:58:13;12.90;99.90
52127;DHT22;38120;53.176;6.614;2022-10-17T05:00:39;13.20;99.90
52127;DHT22;38120;53.176;6.614;2022-10-17T05:03:04;13.00;99.90
52127;DHT22;38120;53.176;6.614;2022-10-17T05:05:30;13.00;99.90
52127;DHT22;38120;53.176;6.614;2022-10-17T05:07:56;13.10;99.90
52127;DHT22;38120;53.176;6.614;2022-10-17T05:10:22;13.10;99.90
52127;DHT22;38120;53.176;6.614;2022-10-17T05:12:48;13.10;99.90
52127;DHT22;38120;53.176;6.614;2022-10-17T05:15:14;13.10;99.90
52127;DHT22;38120;53.176;6.614;2022-10-17T05:17:40;13.00;99.90
52127;DHT22;38120;53.176;6.614;2022-10-17T05:20:06;13.20;99.90
52127;DHT22;38120;53.176;6.614;2022-10-17T05:22:32;13.10;99.90
52127;DHT22;38120;53.176;6.614;2022-10-17T05:24:58;13.20;99.90
52127;DHT22;38120;53.176;6.614;2022-10-17T05:27:24;13.10;99.90
52127;DHT22;38120;53.176;6.614;2022-10-17T05:29:49;13.20;99.90
52127;DHT22;38120;53.176;6.614;2022-10-17T05:32:15;13.10;99.90
52127;DHT22;38120;53.176;6.614;2022-10-17T05:34:41;13.20;99.90
52127;DHT22;38120;53.176;6.614;2022-10-17T05:37:07;13.20;99.90
52127;DHT22;38120;53.176;6.614;2022-10-17T05:39:33;13.20;99.90
52127;DHT22;38120;53.176;6.614;2022-10-17T05:41:58;13.20;99.90
52127;DHT22;38120;53.176;6.614;2022-10-17T05:44:24;13.20;99.90
52127;DHT22;38120;53.176;6.614;2022-10-17T05:46:50;13.20;99.90
52127;DHT22;38120;53.176;6.614;2022-10-17T05:49:16;13.30;99.90
52127;DHT22;38120;53.176;6.614;2022-10-17T05:51:42;13.30;99.90
52127;DHT22;38120;53.176;6.614;2022-10-17T05:54:08;13.20;99.90
52127;DHT22;38120;53.176;6.614;2022-10-17T05:56:34;13.30;99.90
52127;DHT22;38120;53.176;6.614;2022-10-17T05:59:00;13.30;99.90
52127;DHT22;38120;53.176;6.614;2022-10-17T06:01:26;13.40;99.90
52127;DHT22;38120;53.176;6.614;2022-10-17T06:03:52;13.40;99.90
52127;DHT22;38120;53.176;6.614;2022-10-17T06:06:18;13.30;99.90
52127;DHT22;38120;53.176;6.614;2022-10-17T06:08:44;13.40;99.90
52127;DHT22;38120;53.176;6.614;2022-10-17T06:11:11;13.50;99.90
52127;DHT22;38120;53.176;6.614;2022-10-17T06:13:37;13.40;99.90
52127;DHT22;38120;53.176;6.614;2022-10-17T06:16:02;13.40;99.90
52127;DHT22;38120;53.176;6.614;2022-10-17T06:18:28;13.50;99.90
52127;DHT22;38120;53.176;6.614;2022-10-17T06:20:54;13.90;99.90
52127;DHT22;38120;53.176;6.614;2022-10-17T06:23:25;13.70;99.90
52127;DHT22;38120;53.176;6.614;2022-10-17T06:25:52;13.80;99.90
52127;DHT22;38120;53.176;6.614;2022-10-17T06:28:18;13.90;99.90
52127;DHT22;38120;53.176;6.614;2022-10-17T06:30:43;13.90;99.90
52127;DHT22;38120;53.176;6.614;2022-10-17T06:33:09;14.00;99.90
52127;DHT22;38120;53.176;6.614;2022-10-17T06:35:35;14.10;99.90
52127;DHT22;38120;53.176;6.614;2022-10-17T06:38:03;14.10;99.90
52127;DHT22;38120;53.176;6.614;2022-10-17T06:40:29;14.20;99.90
52127;DHT22;38120;53.176;6.614;2022-10-17T06:42:55;14.20;99.90
52127;DHT22;38120;53.176;6.614;2022-10-17T06:45:22;13.20;99.90
52127;DHT22;38120;53.176;6.614;2022-10-17T06:47:47;14.20;99.90
52127;DHT22;38120;53.176;6.614;2022-10-17T06:50:14;14.30;99.90
52127;DHT22;38120;53.176;6.614;2022-10-17T06:52:40;14.30;99.90
52127;DHT22;38120;53.176;6.614;2022-10-17T06:55:05;14.50;99.90
52127;DHT22;38120;53.176;6.614;2022-10-17T06:57:31;14.40;99.90
52127;DHT22;38120;53.176;6.614;2022-10-17T06:59:57;14.40;99.90
52127;DHT22;38120;53.176;6.614;2022-10-17T07:02:23;14.50;99.90
52127;DHT22;38120;53.176;6.614;2022-10-17T07:04:49;14.50;99.90
52127;DHT22;38120;53.176;6.614;2022-10-17T07:07:15;14.50;99.90
52127;DHT22;38120;53.176;6.614;2022-10-17T07:09:40;14.60;99.90
52127;DHT22;38120;53.176;6.614;2022-10-17T07:12:06;14.60;99.90
52127;DHT22;38120;53.176;6.614;2022-10-17T07:14:34;14.70;99.90
52127;DHT22;38120;53.176;6.614;2022-10-17T07:17:00;14.70;99.90
52127;DHT22;38120;53.176;6.614;2022-10-17T07:19:26;14.80;99.90
52127;DHT22;38120;53.176;6.614;2022-10-17T07:21:53;14.80;99.90
52127;DHT22;38120;53.176;6.614;2022-10-17T07:24:18;14.80;99.90
52127;DHT22;38120;53.176;6.614;2022-10-17T07:26:44;14.80;99.90
52127;DHT22;38120;53.176;6.614;2022-10-17T07:29:10;15.00;99.90
52127;DHT22;38120;53.176;6.614;2022-10-17T07:31:36;15.00;99.90
52127;DHT22;38120;53.176;6.614;2022-10-17T07:34:02;15.10;99.90
52127;DHT22;38120;53.176;6.614;2022-10-17T07:36:27;15.10;99.90
52127;DHT22;38120;53.176;6.614;2022-10-17T07:38:53;15.20;99.90
52127;DHT22;38120;53.176;6.614;2022-10-17T07:41:19;15.20;99.90
52127;DHT22;38120;53.176;6.614;2022-10-17T07:43:44;15.40;99.90
52127;DHT22;38120;53.176;6.614;2022-10-17T07:46:10;15.40;99.90
52127;DHT22;38120;53.176;6.614;2022-10-17T07:48:38;15.40;99.90
52127;DHT22;38120;53.176;6.614;2022-10-17T07:51:08;15.50;99.90
52127;DHT22;38120;53.176;6.614;2022-10-17T07:53:38;15.50;99.90
52127;DHT22;38120;53.176;6.614;2022-10-17T07:56:07;15.80;99.90
52127;DHT22;38120;53.176;6.614;2022-10-17T07:58:34;15.60;99.90
52127;DHT22;38120;53.176;6.614;2022-10-17T08:01:06;15.70;99.90
52127;DHT22;38120;53.176;6.614;2022-10-17T08:03:32;15.90;99.90
52127;DHT22;38120;53.176;6.614;2022-10-17T08:05:59;16.00;99.90
52127;DHT22;38120;53.176;6.614;2022-10-17T08:08:26;16.10;99.90
52127;DHT22;38120;53.176;6.614;2022-10-17T08:10:52;16.30;99.90
52127;DHT22;38120;53.176;6.614;2022-10-17T08:13:18;16.50;99.90
52127;DHT22;38120;53.176;6.614;2022-10-17T08:15:44;16.60;99.90
52127;DHT22;38120;53.176;6.614;2022-10-17T08:18:12;16.70;99.90
52127;DHT22;38120;53.176;6.614;2022-10-17T08:20:39;16.10;99.90
52127;DHT22;38120;53.176;6.614;2022-10-17T08:23:05;16.60;99.90
52127;DHT22;38120;53.176;6.614;2022-10-17T08:25:30;16.70;99.90
52127;DHT22;38120;53.176;6.614;2022-10-17T08:27:57;16.80;99.90
52127;DHT22;38120;53.176;6.614;2022-10-17T08:30:23;16.80;99.90
52127;DHT22;38120;53.176;6.614;2022-10-17T08:32:48;16.80;99.90
52127;DHT22;38120;53.176;6.614;2022-10-17T08:35:14;16.90;99.90
52127;DHT22;38120;53.176;6.614;2022-10-17T08:37:40;16.90;99.90
52127;DHT22;38120;53.176;6.614;2022-10-17T08:40:06;16.90;99.90
52127;DHT22;38120;53.176;6.614;2022-10-17T08:45:28;17.00;99.90
52127;DHT22;38120;53.176;6.614;2022-10-17T08:48:02;17.00;99.90
52127;DHT22;38120;53.176;6.614;2022-10-17T08:53:08;17.20;99.90
52127;DHT22;38120;53.176;6.614;2022-10-17T08:55:41;17.20;99.90
52127;DHT22;38120;53.176;6.614;2022-10-17T08:58:26;17.20;99.90
52127;DHT22;38120;53.176;6.614;2022-10-17T09:03:44;17.40;99.90
52127;DHT22;38120;53.176;6.614;2022-10-17T09:06:21;17.30;99.90
52127;DHT22;38120;53.176;6.614;2022-10-17T09:09:03;17.40;99.90
52127;DHT22;38120;53.176;6.614;2022-10-17T09:19:35;17.40;99.90
52127;DHT22;38120;53.176;6.614;2022-10-17T09:22:07;17.50;99.90
52127;DHT22;38120;53.176;6.614;2022-10-17T09:25:01;17.50;99.90
52127;DHT22;38120;53.176;6.614;2022-10-17T09:27:41;17.50;99.90
52127;DHT22;38120;53.176;6.614;2022-10-17T09:30:34;17.50;99.90
52127;DHT22;38120;53.176;6.614;2022-10-17T09:33:09;17.60;99.90
52127;DHT22;38120;53.176;6.614;2022-10-17T09:35:36;17.60;99.90
52127;DHT22;38120;53.176;6.614;2022-10-17T09:38:02;17.50;99.90
52127;DHT22;38120;53.176;6.614;2022-10-17T09:40:32;17.60;99.90
52127;DHT22;38120;53.176;6.614;2022-10-17T09:43:00;17.60;99.90
52127;DHT22;38120;53.176;6.614;2022-10-17T09:45:28;17.70;99.90
52127;DHT22;38120;53.176;6.614;2022-10-17T09:50:44;17.80;99.90
52127;DHT22;38120;53.176;6.614;2022-10-17T09:53:20;17.80;99.90
52127;DHT22;38120;53.176;6.614;2022-10-17T09:55:56;17.80;99.90
52127;DHT22;38120;53.176;6.614;2022-10-17T09:58:22;17.80;99.90
52127;DHT22;38120;53.176;6.614;2022-10-17T10:00:48;17.70;99.90
52127;DHT22;38120;53.176;6.614;2022-10-17T10:05:41;17.70;99.90
52127;DHT22;38120;53.176;6.614;2022-10-17T10:08:16;17.60;99.90
52127;DHT22;38120;53.176;6.614;2022-10-17T10:10:43;17.60;99.90
52127;DHT22;38120;53.176;6.614;2022-10-17T10:15:40;17.40;99.90
52127;DHT22;38120;53.176;6.614;2022-10-17T10:18:28;17.30;99.90
52127;DHT22;38120;53.176;6.614;2022-10-17T10:23:29;17.30;99.90
52127;DHT22;38120;53.176;6.614;2022-10-17T10:26:02;17.30;99.90
52127;DHT22;38120;53.176;6.614;2022-10-17T10:28:33;17.30;99.90
52127;DHT22;38120;53.176;6.614;2022-10-17T10:31:03;17.20;99.90
52127;DHT22;38120;53.176;6.614;2022-10-17T10:33:32;17.20;99.90
52127;DHT22;38120;53.176;6.614;2022-10-17T10:36:04;17.10;99.90
52127;DHT22;38120;53.176;6.614;2022-10-17T10:38:32;17.10;99.90
52127;DHT22;38120;53.176;6.614;2022-10-17T10:41:04;17.10;99.90
52127;DHT22;38120;53.176;6.614;2022-10-17T10:43:44;17.10;99.90
52127;DHT22;38120;53.176;6.614;2022-10-17T10:46:22;17.10;99.90
52127;DHT22;38120;53.176;6.614;2022-10-17T10:48:56;17.10;99.90
52127;DHT22;38120;53.176;6.614;2022-10-17T10:51:38;17.10;99.90
52127;DHT22;38120;53.176;6.614;2022-10-17T10:54:18;17.10;99.90
52127;DHT22;38120;53.176;6.614;2022-10-17T10:56:49;17.10;99.90
52127;DHT22;38120;53.176;6.614;2022-10-17T11:04:36;17.10;99.90
52127;DHT22;38120;53.176;6.614;2022-10-17T11:13:04;17.10;99.90
52127;DHT22;38120;53.176;6.614;2022-10-17T11:18:27;17.10;99.90
52127;DHT22;38120;53.176;6.614;2022-10-17T11:21:05;17.20;99.90
52127;DHT22;38120;53.176;6.614;2022-10-17T11:23:37;17.20;99.90
52127;DHT22;38120;53.176;6.614;2022-10-17T11:26:26;17.30;99.90
52127;DHT22;38120;53.176;6.614;2022-10-17T11:28:56;17.30;99.90
52127;DHT22;38120;53.176;6.614;2022-10-17T11:31:26;17.30;99.90
52127;DHT22;38120;53.176;6.614;2022-10-17T11:34:38;17.30;99.90
52127;DHT22;38120;53.176;6.614;2022-10-17T11:37:00;17.20;99.90
52127;DHT22;38120;53.176;6.614;2022-10-17T11:42:06;17.30;99.90
52127;DHT22;38120;53.176;6.614;2022-10-17T11:44:36;17.20;99.90
52127;DHT22;38120;53.176;6.614;2022-10-17T11:49:35;17.30;99.90
52127;DHT22;38120;53.176;6.614;2022-10-17T11:54:58;17.20;99.90
52127;DHT22;38120;53.176;6.614;2022-10-17T11:58:26;17.20;99.90
52127;DHT22;38120;53.176;6.614;2022-10-17T12:03:32;17.20;99.90
52127;DHT22;38120;53.176;6.614;2022-10-17T12:06:03;17.20;99.90
52127;DHT22;38120;53.176;6.614;2022-10-17T12:08:48;17.30;99.90
52127;DHT22;38120;53.176;6.614;2022-10-17T12:17:28;17.20;99.90
52127;DHT22;38120;53.176;6.614;2022-10-17T12:25:32;17.30;99.90
52127;DHT22;38120;53.176;6.614;2022-10-17T12:28:12;17.40;99.90
52127;DHT22;38120;53.176;6.614;2022-10-17T12:30:56;17.50;99.90
52127;DHT22;38120;53.176;6.614;2022-10-17T12:33:50;17.60;99.90
52127;DHT22;38120;53.176;6.614;2022-10-17T12:49:44;17.50;99.90
52127;DHT22;38120;53.176;6.614;2022-10-17T12:52:25;17.40;99.90
52127;DHT22;38120;53.176;6.614;2022-10-17T12:58:14;17.40;99.90
52127;DHT22;38120;53.176;6.614;2022-10-17T13:02:48;17.30;99.90
52127;DHT22;38120;53.176;6.614;2022-10-17T13:05:31;17.40;99.90
52127;DHT22;38120;53.176;6.614;2022-10-17T13:07:59;17.40;99.90
52127;DHT22;38120;53.176;6.614;2022-10-17T13:10:28;17.30;99.90
52127;DHT22;38120;53.176;6.614;2022-10-17T13:13:12;17.40;99.90
52127;DHT22;38120;53.176;6.614;2022-10-17T13:15:53;17.30;99.90
52127;DHT22;38120;53.176;6.614;2022-10-17T13:18:24;17.20;99.90
52127;DHT22;38120;53.176;6.614;2022-10-17T13:21:05;17.20;99.90
52127;DHT22;38120;53.176;6.614;2022-10-17T13:23:34;17.20;99.90
52127;DHT22;38120;53.176;6.614;2022-10-17T13:28:35;17.10;99.90
52127;DHT22;38120;53.176;6.614;2022-10-17T13:31:00;17.00;99.90
52127;DHT22;38120;53.176;6.614;2022-10-17T13:33:38;17.00;99.90
52127;DHT22;38120;53.176;6.614;2022-10-17T13:36:13;17.00;99.90
52127;DHT22;38120;53.176;6.614;2022-10-17T13:38:41;16.90;99.90
52127;DHT22;38120;53.176;6.614;2022-10-17T13:41:11;16.90;99.90
52127;DHT22;38120;53.176;6.614;2022-10-17T13:43:40;16.80;99.90
52127;DHT22;38120;53.176;6.614;2022-10-17T13:46:06;16.90;99.90
52127;DHT22;38120;53.176;6.614;2022-10-17T13:48:35;16.80;99.90
52127;DHT22;38120;53.176;6.614;2022-10-17T13:51:03;16.70;99.90
52127;DHT22;38120;53.176;6.614;2022-10-17T13:53:39;16.80;99.90
52127;DHT22;38120;53.176;6.614;2022-10-17T14:01:11;16.70;99.90
52127;DHT22;38120;53.176;6.614;2022-10-17T14:03:40;16.70;99.90
52127;DHT22;38120;53.176;6.614;2022-10-17T14:08:39;16.70;99.90
52127;DHT22;38120;53.176;6.614;2022-10-17T14:11:20;16.60;99.90
52127;DHT22;38120;53.176;6.614;2022-10-17T14:13:48;16.50;99.90
52127;DHT22;38120;53.176;6.614;2022-10-17T14:16:14;16.40;99.90
52127;DHT22;38120;53.176;6.614;2022-10-17T14:18:40;16.50;99.90
52127;DHT22;38120;53.176;6.614;2022-10-17T14:21:08;16.50;99.90
52127;DHT22;38120;53.176;6.614;2022-10-17T14:23:41;16.40;99.90
52127;DHT22;38120;53.176;6.614;2022-10-17T14:26:17;16.50;99.90
52127;DHT22;38120;53.176;6.614;2022-10-17T14:29:01;16.50;99.90
52127;DHT22;38120;53.176;6.614;2022-10-17T14:31:32;16.50;99.90
52127;DHT22;38120;53.176;6.614;2022-10-17T14:34:01;16.50;99.90
52127;DHT22;38120;53.176;6.614;2022-10-17T14:36:37;16.40;99.90
52127;DHT22;38120;53.176;6.614;2022-10-17T14:39:06;16.40;99.90
52127;DHT22;38120;53.176;6.614;2022-10-17T14:41:34;16.40;99.90
52127;DHT22;38120;53.176;6.614;2022-10-17T14:44:06;16.40;99.90
52127;DHT22;38120;53.176;6.614;2022-10-17T14:46:35;16.30;99.90
52127;DHT22;38120;53.176;6.614;2022-10-17T14:49:05;16.40;99.90
52127;DHT22;38120;53.176;6.614;2022-10-17T14:51:31;16.30;99.90
52127;DHT22;38120;53.176;6.614;2022-10-17T14:54:02;16.40;99.90
52127;DHT22;38120;53.176;6.614;2022-10-17T14:56:36;16.40;99.90
52127;DHT22;38120;53.176;6.614;2022-10-17T14:59:03;16.40;99.90
52127;DHT22;38120;53.176;6.614;2022-10-17T15:01:31;16.30;99.90
52127;DHT22;38120;53.176;6.614;2022-10-17T15:03:57;16.40;99.90
52127;DHT22;38120;53.176;6.614;2022-10-17T15:06:32;16.40;99.90
52127;DHT22;38120;53.176;6.614;2022-10-17T15:08:58;16.30;99.90
52127;DHT22;38120;53.176;6.614;2022-10-17T15:11:24;16.30;99.90
52127;DHT22;38120;53.176;6.614;2022-10-17T15:13:50;16.30;99.90
52127;DHT22;38120;53.176;6.614;2022-10-17T15:16:23;16.30;99.90
52127;DHT22;38120;53.176;6.614;2022-10-17T15:18:49;16.40;99.90
52127;DHT22;38120;53.176;6.614;2022-10-17T15:21:16;16.30;99.90
52127;DHT22;38120;53.176;6.614;2022-10-17T15:23:41;16.30;99.90
52127;DHT22;38120;53.176;6.614;2022-10-17T15:28:40;16.40;99.90
52127;DHT22;38120;53.176;6.614;2022-10-17T15:31:10;16.40;99.90
52127;DHT22;38120;53.176;6.614;2022-10-17T15:33:35;16.40;99.90
52127;DHT22;38120;53.176;6.614;2022-10-17T15:36:01;16.50;99.90
52127;DHT22;38120;53.176;6.614;2022-10-17T15:38:27;16.40;99.90
52127;DHT22;38120;53.176;6.614;2022-10-17T15:40:53;16.40;99.90
52127;DHT22;38120;53.176;6.614;2022-10-17T15:43:18;16.30;99.90
52127;DHT22;38120;53.176;6.614;2022-10-17T15:45:44;16.30;99.90
52127;DHT22;38120;53.176;6.614;2022-10-17T15:48:21;16.30;99.90
52127;DHT22;38120;53.176;6.614;2022-10-17T15:50:49;16.30;99.90
52127;DHT22;38120;53.176;6.614;2022-10-17T15:53:15;16.20;99.90
52127;DHT22;38120;53.176;6.614;2022-10-17T15:55:41;16.00;99.90
52127;DHT22;38120;53.176;6.614;2022-10-17T15:58:12;16.10;99.90
52127;DHT22;38120;53.176;6.614;2022-10-17T16:00:39;16.10;99.90
52127;DHT22;38120;53.176;6.614;2022-10-17T16:03:04;16.10;99.90
52127;DHT22;38120;53.176;6.614;2022-10-17T16:05:30;16.10;99.90
52127;DHT22;38120;53.176;6.614;2022-10-17T16:07:55;16.00;99.90
52127;DHT22;38120;53.176;6.614;2022-10-17T16:10:22;15.90;99.90
52127;DHT22;38120;53.176;6.614;2022-10-17T16:12:48;15.90;99.90
52127;DHT22;38120;53.176;6.614;2022-10-17T16:15:22;15.90;99.90
52127;DHT22;38120;53.176;6.614;2022-10-17T16:17:48;15.90;99.90
52127;DHT22;38120;53.176;6.614;2022-10-17T16:20:14;15.90;99.90
52127;DHT22;38120;53.176;6.614;2022-10-17T16:22:42;15.80;99.90
52127;DHT22;38120;53.176;6.614;2022-10-17T16:25:20;15.80;99.90
52127;DHT22;38120;53.176;6.614;2022-10-17T16:27:47;15.80;99.90
52127;DHT22;38120;53.176;6.614;2022-10-17T16:30:13;15.70;99.90
52127;DHT22;38120;53.176;6.614;2022-10-17T16:32:39;15.80;99.90
52127;DHT22;38120;53.176;6.614;2022-10-17T16:35:06;15.70;99.90
52127;DHT22;38120;53.176;6.614;2022-10-17T16:37:31;15.70;99.90
52127;DHT22;38120;53.176;6.614;2022-10-17T16:39:58;15.70;99.90
52127;DHT22;38120;53.176;6.614;2022-10-17T16:42:24;15.60;99.90
52127;DHT22;38120;53.176;6.614;2022-10-17T16:44:50;15.70;99.90
52127;DHT22;38120;53.176;6.614;2022-10-17T16:47:17;15.70;99.90
52127;DHT22;38120;53.176;6.614;2022-10-17T16:49:43;15.60;99.90
52127;DHT22;38120;53.176;6.614;2022-10-17T16:52:08;15.70;99.90
52127;DHT22;38120;53.176;6.614;2022-10-17T16:54:34;15.60;99.90
52127;DHT22;38120;53.176;6.614;2022-10-17T16:57:01;15.60;99.90
52127;DHT22;38120;53.176;6.614;2022-10-17T16:59:27;15.50;99.90
52127;DHT22;38120;53.176;6.614;2022-10-17T17:01:52;15.50;99.90
52127;DHT22;38120;53.176;6.614;2022-10-17T17:04:18;15.50;99.90
52127;DHT22;38120;53.176;6.614;2022-10-17T17:06:44;15.50;99.90
52127;DHT22;38120;53.176;6.614;2022-10-17T17:09:10;15.50;99.90
52127;DHT22;38120;53.176;6.614;2022-10-17T17:11:36;15.50;99.90
52127;DHT22;38120;53.176;6.614;2022-10-17T17:14:03;15.50;99.90
52127;DHT22;38120;53.176;6.614;2022-10-17T17:16:31;15.50;99.90
52127;DHT22;38120;53.176;6.614;2022-10-17T17:18:59;15.40;99.90
52127;DHT22;38120;53.176;6.614;2022-10-17T17:21:26;15.40;99.90
52127;DHT22;38120;53.176;6.614;2022-10-17T17:23:52;15.50;99.90
52127;DHT22;38120;53.176;6.614;2022-10-17T17:26:20;15.50;99.90
52127;DHT22;38120;53.176;6.614;2022-10-17T17:28:46;15.40;99.90
52127;DHT22;38120;53.176;6.614;2022-10-17T17:31:15;15.40;99.90
52127;DHT22;38120;53.176;6.614;2022-10-17T17:33:41;15.40;99.90
52127;DHT22;38120;53.176;6.614;2022-10-17T17:36:09;15.40;99.90
52127;DHT22;38120;53.176;6.614;2022-10-17T17:38:36;15.30;99.90
52127;DHT22;38120;53.176;6.614;2022-10-17T17:41:04;15.40;99.90
52127;DHT22;38120;53.176;6.614;2022-10-17T17:43:30;15.40;99.90
52127;DHT22;38120;53.176;6.614;2022-10-17T17:45:55;15.30;99.90
52127;DHT22;38120;53.176;6.614;2022-10-17T17:48:21;15.40;99.90
52127;DHT22;38120;53.176;6.614;2022-10-17T17:50:47;15.40;99.90
52127;DHT22;38120;53.176;6.614;2022-10-17T17:53:14;15.40;99.90
52127;DHT22;38120;53.176;6.614;2022-10-17T17:55:40;15.30;99.90
52127;DHT22;38120;53.176;6.614;2022-10-17T17:58:06;16.30;99.90